Time;durP1;ratioP1;P1;durP2;ratioP2;P2;SDS_P1;SDS_P2;PMS_P1;PMS_P2;Temp;Humidity;BMP_temperature;BMP_pressure;BME280_temperature;BME280_humidity;BME280_pressure;Samples;Min_cycle;Max_cycle;Signal;HPM_P1;HPM_P2
2022/02/19 00:00:30;;;;;;;4.83;4.03;;;4.20;72.10;;;;;;4998866;28;20185;-79
2022/02/19 00:02:56;;;;;;;5.40;3.27;;;4.20;71.90;;;;;;4996173;28;20275;-79
2022/02/19 00:05:24;;;;;;;6.70;4.40;;;4.20;71.70;;;;;;4998758;28;20698;-78
2022/02/19 00:07:51;;;;;;;3.23;2.97;;;4.20;71.80;;;;;;4999441;28;20221;-78
2022/02/19 00:10:17;;;;;;;6.07;3.43;;;4.20;71.60;;;;;;4995412;28;20204;-78
2022/02/19 00:12:43;;;;;;;8.97;4.50;;;4.20;71.50;;;;;;4999840;28;20201;-78
2022/02/19 00:15:16;;;;;;;12.07;4.43;;;4.10;71.40;;;;;;4997024;28;20197;-78
2022/02/19 00:17:41;;;;;;;5.97;3.50;;;4.20;71.40;;;;;;5000556;28;20697;-78
2022/02/19 00:20:10;;;;;;;8.47;3.70;;;4.20;71.30;;;;;;4994671;28;20181;-78
2022/02/19 00:22:35;;;;;;;13.90;4.47;;;4.10;71.70;;;;;;4993150;28;20644;-79
2022/02/19 00:25:03;;;;;;;5.53;4.73;;;4.10;71.70;;;;;;4995957;28;20192;-79
2022/02/19 00:27:28;;;;;;;7.90;5.47;;;4.20;72.20;;;;;;4995298;28;20212;-79
2022/02/19 00:29:54;;;;;;;6.03;4.77;;;4.10;72.10;;;;;;4997486;28;20189;-79
2022/02/19 00:32:20;;;;;;;11.63;5.07;;;4.10;72.20;;;;;;4995917;28;20192;-79
2022/02/19 00:34:46;;;;;;;7.63;4.53;;;4.10;72.40;;;;;;4993931;28;20810;-79
2022/02/19 00:37:11;;;;;;;8.07;4.67;;;4.00;72.60;;;;;;4996198;28;20190;-78
2022/02/19 00:39:38;;;;;;;13.40;5.60;;;4.00;72.90;;;;;;4995870;28;20182;-78
2022/02/19 00:42:05;;;;;;;6.20;4.40;;;4.00;72.80;;;;;;4990896;28;20202;-78
2022/02/19 00:44:32;;;;;;;9.97;5.37;;;3.90;72.70;;;;;;4992263;28;20189;-78
2022/02/19 00:46:58;;;;;;;12.23;5.30;;;3.90;73.20;;;;;;4996300;28;20220;-78
2022/02/19 00:49:24;;;;;;;12.60;5.27;;;3.90;73.00;;;;;;4994377;28;20268;-79
2022/02/19 00:51:50;;;;;;;10.50;5.47;;;3.90;72.90;;;;;;5005587;28;20177;-78
2022/02/19 00:54:16;;;;;;;10.37;5.13;;;3.80;72.80;;;;;;4998670;28;20186;-78
2022/02/19 00:56:42;;;;;;;7.80;5.77;;;3.80;73.10;;;;;;4994807;28;20271;-79
2022/02/19 00:59:08;;;;;;;9.57;5.67;;;3.80;73.20;;;;;;4998348;28;20291;-79
2022/02/19 01:01:34;;;;;;;11.40;6.23;;;3.80;73.00;;;;;;4996614;28;20193;-79
2022/02/19 01:03:59;;;;;;;12.37;6.53;;;3.80;73.30;;;;;;4996603;28;20181;-79
2022/02/19 01:06:25;;;;;;;6.73;5.37;;;3.80;73.00;;;;;;4994251;28;20177;-78
2022/02/19 01:08:51;;;;;;;9.43;6.40;;;3.80;73.00;;;;;;4996350;28;20221;-79
2022/02/19 01:11:17;;;;;;;11.90;6.37;;;3.70;73.20;;;;;;4993399;28;20186;-79
2022/02/19 01:13:44;;;;;;;14.77;7.13;;;3.70;73.20;;;;;;4996100;28;20177;-80
2022/02/19 01:16:10;;;;;;;16.53;6.77;;;3.70;73.30;;;;;;4993155;28;20275;-79
2022/02/19 01:18:36;;;;;;;13.03;6.70;;;3.70;73.40;;;;;;4998135;28;20868;-79
2022/02/19 01:21:01;;;;;;;12.10;6.53;;;3.70;73.70;;;;;;4997732;28;20969;-79
2022/02/19 01:23:27;;;;;;;18.63;6.70;;;3.70;73.40;;;;;;4992152;28;20185;-79
2022/02/19 01:25:53;;;;;;;12.60;6.77;;;3.70;73.70;;;;;;4992791;28;20189;-80
2022/02/19 01:28:18;;;;;;;14.10;5.83;;;3.60;74.10;;;;;;4996944;28;20256;-79
2022/02/19 01:30:44;;;;;;;15.40;6.13;;;3.60;74.20;;;;;;4997818;28;20193;-79
2022/02/19 01:33:10;;;;;;;10.90;5.30;;;3.50;74.20;;;;;;4998800;28;20201;-79
2022/02/19 01:35:37;;;;;;;14.43;6.67;;;3.50;74.20;;;;;;4995864;28;20186;-79
2022/02/19 01:38:03;;;;;;;7.43;5.80;;;3.50;74.40;;;;;;4997604;28;20215;-79
2022/02/19 01:40:29;;;;;;;8.77;5.10;;;3.50;74.70;;;;;;4997582;28;20196;-79
2022/02/19 01:42:55;;;;;;;13.97;6.03;;;3.50;74.60;;;;;;4999149;28;20962;-79
2022/02/19 01:45:21;;;;;;;8.57;5.13;;;3.40;74.80;;;;;;4996452;28;20204;-79
2022/02/19 01:47:47;;;;;;;10.83;4.53;;;3.40;75.20;;;;;;4996335;28;20714;-79
2022/02/19 01:50:13;;;;;;;10.17;4.63;;;3.40;75.50;;;;;;4995660;28;20734;-78
2022/02/19 01:52:42;;;;;;;8.23;3.77;;;3.30;75.40;;;;;;4997513;28;20773;-78
2022/02/19 01:55:10;;;;;;;6.43;3.77;;;3.30;75.60;;;;;;4993353;28;20182;-78
2022/02/19 01:57:37;;;;;;;5.07;3.50;;;3.30;75.40;;;;;;4996184;28;20188;-78
2022/02/19 02:00:05;;;;;;;4.30;3.00;;;3.30;75.20;;;;;;4996340;28;20213;-80
2022/02/19 02:02:30;;;;;;;5.17;3.00;;;3.20;75.20;;;;;;4996862;28;20653;-78
2022/02/19 02:04:56;;;;;;;8.27;3.23;;;3.20;75.20;;;;;;5005562;28;20185;-79
2022/02/19 02:07:22;;;;;;;4.27;2.97;;;3.20;75.10;;;;;;5000461;28;20231;-79
2022/02/19 02:09:48;;;;;;;2.87;2.37;;;3.20;75.10;;;;;;4995075;28;21337;-79
2022/02/19 02:12:14;;;;;;;4.33;3.23;;;3.20;75.00;;;;;;4997580;28;20196;-79
2022/02/19 02:14:41;;;;;;;3.87;3.40;;;3.20;75.00;;;;;;4995669;28;20687;-78
2022/02/19 02:17:09;;;;;;;13.17;3.80;;;3.20;75.20;;;;;;4996906;28;20243;-79
2022/02/19 02:19:35;;;;;;;5.00;3.77;;;3.20;75.20;;;;;;5003858;28;20276;-79
2022/02/19 02:22:08;;;;;;;6.50;4.80;;;3.20;75.40;;;;;;5001439;28;20185;-80
2022/02/19 02:24:38;;;;;;;9.57;4.47;;;3.20;75.40;;;;;;4997846;28;20687;-79
2022/02/19 02:27:07;;;;;;;9.50;3.97;;;3.20;75.50;;;;;;4994317;28;20247;-79
2022/02/19 02:29:40;;;;;;;14.50;5.97;;;3.20;75.60;;;;;;4996864;28;20277;-79
2022/02/19 02:32:06;;;;;;;9.77;5.67;;;3.10;75.70;;;;;;4997893;28;20296;-79
2022/02/19 02:34:32;;;;;;;8.40;5.47;;;3.10;75.90;;;;;;4994065;28;20199;-79
2022/02/19 02:36:57;;;;;;;8.23;5.63;;;3.10;75.90;;;;;;5001266;28;20189;-79
2022/02/19 02:39:23;;;;;;;9.27;5.83;;;3.10;75.90;;;;;;4999951;28;20181;-79
2022/02/19 02:41:49;;;;;;;11.90;6.37;;;3.00;75.70;;;;;;5000584;28;20189;-79
2022/02/19 02:44:14;;;;;;;11.47;5.93;;;3.00;76.10;;;;;;4997184;28;20184;-79
2022/02/19 02:46:40;;;;;;;11.20;5.27;;;3.00;76.10;;;;;;4997471;28;20286;-78
2022/02/19 02:49:06;;;;;;;8.43;5.97;;;3.00;76.10;;;;;;5003341;28;21471;-79
2022/02/19 02:51:31;;;;;;;16.20;7.10;;;3.00;76.10;;;;;;4997144;28;20187;-79
2022/02/19 02:53:57;;;;;;;11.87;6.30;;;3.00;76.40;;;;;;4992588;28;20181;-77
2022/02/19 02:56:23;;;;;;;11.80;6.90;;;2.90;76.70;;;;;;4997346;28;20189;-77
2022/02/19 02:58:49;;;;;;;9.47;6.17;;;2.90;76.40;;;;;;5002465;28;20180;-77
2022/02/19 03:01:14;;;;;;;13.73;7.03;;;2.90;76.80;;;;;;4997632;28;20209;-78
2022/02/19 03:03:40;;;;;;;13.93;7.57;;;2.80;76.80;;;;;;4997738;28;20682;-79
2022/02/19 03:06:06;;;;;;;13.67;7.37;;;2.80;76.70;;;;;;4999471;28;20185;-79
2022/02/19 03:08:32;;;;;;;14.97;7.17;;;2.80;76.80;;;;;;5000799;28;20206;-78
2022/02/19 03:10:57;;;;;;;13.50;8.30;;;2.70;77.00;;;;;;5000060;28;20189;-78
2022/02/19 03:13:23;;;;;;;19.93;8.80;;;2.70;77.10;;;;;;5000708;28;20186;-78
2022/02/19 03:15:49;;;;;;;20.57;9.63;;;2.70;77.10;;;;;;5001624;28;20177;-78
2022/02/19 03:18:17;;;;;;;18.53;8.50;;;2.70;77.00;;;;;;4999994;28;20283;-77
2022/02/19 03:20:43;;;;;;;18.57;9.63;;;2.70;76.90;;;;;;4997370;28;20228;-79
2022/02/19 03:23:09;;;;;;;16.17;9.07;;;2.60;77.10;;;;;;4997161;28;20190;-79
2022/02/19 03:25:35;;;;;;;24.90;9.30;;;2.60;77.50;;;;;;4999310;28;20189;-79
2022/02/19 03:28:00;;;;;;;14.73;9.07;;;2.60;77.70;;;;;;4999980;28;20216;-78
2022/02/19 03:30:26;;;;;;;17.77;7.43;;;2.50;77.60;;;;;;4999047;28;20201;-79
2022/02/19 03:32:54;;;;;;;17.87;8.47;;;2.50;77.80;;;;;;4999514;28;20182;-79
2022/02/19 03:35:20;;;;;;;15.70;7.83;;;2.50;77.60;;;;;;4999305;28;20275;-79
2022/02/19 03:37:46;;;;;;;13.07;7.73;;;2.50;77.70;;;;;;4999367;28;20189;-78
2022/02/19 03:40:11;;;;;;;13.17;8.53;;;2.50;77.70;;;;;;5001531;28;20623;-78
2022/02/19 03:42:39;;;;;;;13.47;6.73;;;2.50;78.00;;;;;;4995512;28;20747;-77
2022/02/19 03:45:08;;;;;;;15.47;7.83;;;2.40;78.20;;;;;;5000184;28;20749;-79
2022/02/19 03:47:35;;;;;;;15.33;7.27;;;2.40;78.30;;;;;;4998012;28;20248;-79
2022/02/19 03:50:06;;;;;;;9.00;5.80;;;2.40;78.80;;;;;;5013346;28;20685;-78
2022/02/19 03:52:32;;;;;;;7.97;5.90;;;2.30;78.60;;;;;;4995833;28;20218;-78
2022/02/19 03:54:57;;;;;;;10.17;6.10;;;2.40;78.90;;;;;;5001438;28;20216;-78
2022/02/19 03:57:23;;;;;;;13.70;5.77;;;2.30;78.90;;;;;;5001292;28;20247;-78
2022/02/19 03:59:49;;;;;;;11.73;4.90;;;2.40;79.00;;;;;;4998165;28;20213;-79
2022/02/19 04:02:15;;;;;;;6.10;4.53;;;2.30;78.90;;;;;;4998618;28;20581;-79
2022/02/19 04:04:43;;;;;;;6.20;4.47;;;2.30;79.10;;;;;;4999273;28;20630;-79
2022/02/19 04:07:09;;;;;;;7.60;5.37;;;2.30;79.10;;;;;;5010599;28;20240;-79
2022/02/19 04:09:34;;;;;;;9.47;4.83;;;2.30;79.10;;;;;;4999544;28;20683;-79
2022/02/19 04:12:00;;;;;;;5.80;4.50;;;2.30;79.30;;;;;;4999695;28;20271;-79
2022/02/19 04:14:26;;;;;;;9.67;4.90;;;2.30;79.10;;;;;;4995283;28;20239;-79
2022/02/19 04:16:53;;;;;;;12.10;6.03;;;2.40;79.50;;;;;;4996532;28;20193;-79
2022/02/19 04:19:19;;;;;;;8.67;5.90;;;2.40;79.50;;;;;;4998415;28;20586;-79
2022/02/19 04:21:45;;;;;;;11.27;6.07;;;2.30;79.30;;;;;;5000786;28;20189;-79
2022/02/19 04:24:11;;;;;;;11.20;5.67;;;2.30;79.30;;;;;;4998911;28;20694;-79
2022/02/19 04:26:37;;;;;;;9.80;6.17;;;2.30;79.10;;;;;;4992384;28;20177;-79
2022/02/19 04:29:02;;;;;;;9.33;5.83;;;2.30;79.20;;;;;;4996782;28;20292;-79
2022/02/19 04:31:28;;;;;;;6.00;4.40;;;2.20;79.60;;;;;;5002048;28;20189;-79
2022/02/19 04:33:54;;;;;;;6.77;4.50;;;2.20;80.10;;;;;;4999843;28;20267;-78
2022/02/19 04:36:19;;;;;;;4.63;3.40;;;2.10;80.10;;;;;;4997701;28;20189;-78
2022/02/19 04:38:46;;;;;;;6.00;3.73;;;2.10;80.30;;;;;;4995039;28;20248;-78
2022/02/19 04:41:12;;;;;;;7.70;3.60;;;2.10;80.40;;;;;;4996104;28;20188;-79
2022/02/19 04:43:38;;;;;;;6.13;3.83;;;2.00;80.50;;;;;;4989888;28;20181;-78
2022/02/19 04:46:04;;;;;;;6.10;3.97;;;2.00;80.40;;;;;;4995743;28;20290;-78
2022/02/19 04:48:30;;;;;;;6.40;3.80;;;2.00;80.40;;;;;;4996226;28;20258;-78
2022/02/19 04:50:55;;;;;;;7.77;3.57;;;2.10;80.30;;;;;;4995375;28;20580;-78
2022/02/19 04:53:21;;;;;;;4.83;3.67;;;2.10;80.20;;;;;;4996415;28;20198;-78
2022/02/19 04:55:47;;;;;;;2.97;2.80;;;2.10;80.00;;;;;;4995468;28;20185;-79
2022/02/19 04:58:13;;;;;;;8.43;3.60;;;2.10;80.10;;;;;;4995923;28;20763;-77
2022/02/19 05:00:39;;;;;;;4.67;2.90;;;2.10;80.10;;;;;;4996440;28;20272;-78
2022/02/19 05:03:05;;;;;;;7.67;2.80;;;2.10;79.90;;;;;;4994321;28;20189;-79
2022/02/19 05:05:30;;;;;;;5.93;3.57;;;2.10;79.90;;;;;;4997486;28;20173;-78
2022/02/19 05:07:56;;;;;;;9.47;3.87;;;2.10;79.90;;;;;;4994759;28;20221;-78
2022/02/19 05:10:22;;;;;;;10.50;4.97;;;2.10;79.90;;;;;;4998909;28;20177;-78
2022/02/19 05:12:48;;;;;;;5.63;4.13;;;2.10;79.90;;;;;;4997039;28;20334;-78
2022/02/19 05:15:15;;;;;;;15.50;5.43;;;2.10;80.10;;;;;;5007999;28;20735;-78
2022/02/19 05:17:49;;;;;;;8.30;5.03;;;2.10;80.40;;;;;;4992893;28;20247;-79
2022/02/19 05:20:22;;;;;;;16.47;5.03;;;2.10;80.50;;;;;;4994748;28;20192;-79
2022/02/19 05:22:48;;;;;;;9.30;5.80;;;2.10;80.60;;;;;;4996657;28;20182;-79
2022/02/19 05:25:14;;;;;;;7.50;5.53;;;2.10;80.50;;;;;;4993855;28;20217;-79
2022/02/19 05:27:40;;;;;;;11.27;4.90;;;2.10;80.60;;;;;;4998195;28;20247;-79
2022/02/19 05:30:07;;;;;;;9.80;5.60;;;2.10;80.70;;;;;;4998762;28;20647;-79
2022/02/19 05:32:33;;;;;;;13.80;6.37;;;2.10;80.80;;;;;;4997826;28;20688;-79
2022/02/19 05:34:59;;;;;;;9.77;6.23;;;2.00;80.70;;;;;;4998663;28;20235;-76
2022/02/19 05:37:24;;;;;;;11.37;6.57;;;2.10;80.90;;;;;;4994343;28;20181;-79
2022/02/19 05:39:50;;;;;;;13.73;6.27;;;2.00;80.90;;;;;;4995085;28;20185;-78
2022/02/19 05:42:16;;;;;;;14.77;6.43;;;2.00;80.90;;;;;;4995118;28;21040;-77
2022/02/19 05:44:42;;;;;;;6.90;6.10;;;2.00;81.10;;;;;;4990631;28;20197;-78
2022/02/19 05:47:08;;;;;;;10.57;6.30;;;2.00;81.20;;;;;;4992961;28;20219;-78
2022/02/19 05:49:34;;;;;;;10.87;6.33;;;1.90;81.20;;;;;;4990575;28;20933;-78
2022/02/19 05:52:00;;;;;;;13.07;6.53;;;1.90;81.10;;;;;;4995329;28;20573;-78
2022/02/19 05:54:25;;;;;;;10.97;6.73;;;2.00;81.20;;;;;;4996788;28;20177;-78
2022/02/19 05:56:51;;;;;;;10.80;7.13;;;1.90;81.50;;;;;;4996538;28;20243;-78
2022/02/19 05:59:17;;;;;;;14.23;6.97;;;1.90;81.50;;;;;;4993458;28;20177;-78
2022/02/19 06:01:43;;;;;;;9.20;6.03;;;1.90;81.50;;;;;;4995638;28;20191;-78
2022/02/19 06:04:08;;;;;;;12.73;7.23;;;1.90;81.50;;;;;;4994481;28;20189;-78
2022/02/19 06:06:34;;;;;;;11.93;5.97;;;1.90;81.40;;;;;;4995448;28;20192;-78
2022/02/19 06:09:00;;;;;;;21.97;6.80;;;2.00;81.40;;;;;;4990471;28;20213;-78
2022/02/19 06:11:26;;;;;;;10.90;5.73;;;2.00;81.30;;;;;;4993438;28;20177;-78
2022/02/19 06:13:51;;;;;;;10.20;6.57;;;2.00;81.20;;;;;;4995155;28;20186;-78
2022/02/19 06:16:17;;;;;;;17.10;6.40;;;2.10;81.40;;;;;;4995132;28;20204;-78
2022/02/19 06:18:43;;;;;;;13.80;7.77;;;2.10;81.40;;;;;;4993331;28;20185;-78
2022/02/19 06:21:08;;;;;;;16.63;6.27;;;2.20;81.50;;;;;;4992755;28;20195;-78
2022/02/19 06:23:34;;;;;;;11.20;6.13;;;2.20;81.50;;;;;;4993489;28;20185;-78
2022/02/19 06:26:00;;;;;;;11.67;6.90;;;2.30;81.50;;;;;;4993474;28;20181;-78
2022/02/19 06:28:25;;;;;;;15.33;7.23;;;2.40;81.50;;;;;;4993386;28;20212;-78
2022/02/19 06:30:52;;;;;;;10.33;6.40;;;2.50;81.40;;;;;;4995061;28;20192;-78
2022/02/19 06:33:18;;;;;;;12.87;7.17;;;2.50;81.30;;;;;;4989916;28;20181;-78
2022/02/19 06:35:43;;;;;;;18.40;7.90;;;2.60;81.20;;;;;;4993370;28;20193;-77
2022/02/19 06:38:09;;;;;;;13.10;7.70;;;2.70;81.40;;;;;;4996314;28;20690;-77
2022/02/19 06:40:35;;;;;;;18.63;7.80;;;2.70;81.20;;;;;;4992520;28;20671;-77
2022/02/19 06:43:01;;;;;;;17.97;8.00;;;2.80;81.10;;;;;;4993956;28;20291;-76
2022/02/19 06:45:27;;;;;;;11.63;8.03;;;2.80;80.90;;;;;;4992948;28;20800;-77
2022/02/19 06:47:52;;;;;;;10.80;6.83;;;2.90;80.60;;;;;;4991444;28;20209;-77
2022/02/19 06:50:18;;;;;;;11.93;7.30;;;2.90;80.40;;;;;;4991542;28;20192;-77
2022/02/19 06:52:44;;;;;;;16.77;7.90;;;3.00;80.20;;;;;;4994458;28;20185;-77
2022/02/19 06:55:09;;;;;;;14.70;7.63;;;3.10;80.20;;;;;;4997603;28;20182;-77
2022/02/19 06:57:36;;;;;;;17.47;8.40;;;3.10;80.40;;;;;;4994287;28;20636;-76
2022/02/19 07:00:05;;;;;;;14.63;8.43;;;3.20;80.50;;;;;;4996210;28;20284;-77
2022/02/19 07:02:31;;;;;;;19.67;8.23;;;3.30;80.10;;;;;;4990978;28;20182;-77
2022/02/19 07:04:57;;;;;;;15.17;8.10;;;3.40;79.70;;;;;;4992872;28;20728;-77
2022/02/19 07:07:22;;;;;;;22.07;9.07;;;3.40;79.50;;;;;;4996114;28;20217;-76
2022/02/19 07:09:48;;;;;;;13.67;8.00;;;3.50;79.30;;;;;;4996434;28;20234;-76
2022/02/19 07:12:14;;;;;;;13.83;6.27;;;3.50;79.00;;;;;;4996250;28;20274;-75
2022/02/19 07:14:39;;;;;;;13.00;6.47;;;3.70;78.80;;;;;;4995809;28;20255;-77
2022/02/19 07:17:05;;;;;;;13.03;6.43;;;3.80;78.50;;;;;;5000664;28;20316;-76
2022/02/19 07:19:33;;;;;;;13.90;7.23;;;3.90;78.50;;;;;;4997744;28;20212;-77
2022/02/19 07:21:59;;;;;;;17.60;8.13;;;4.10;78.50;;;;;;4996419;28;20186;-77
2022/02/19 07:24:25;;;;;;;19.27;8.67;;;4.40;78.80;;;;;;4998447;28;20189;-77
2022/02/19 07:26:50;;;;;;;14.03;7.20;;;4.80;79.20;;;;;;5000181;28;20259;-78
2022/02/19 07:29:18;;;;;;;16.33;6.60;;;5.40;77.00;;;;;;4996338;28;20192;-78
2022/02/19 07:31:43;;;;;;;19.27;7.07;;;6.10;74.90;;;;;;5000862;28;20227;-77
2022/02/19 07:34:09;;;;;;;24.20;8.03;;;6.80;73.60;;;;;;4997588;28;20277;-79
2022/02/19 07:36:35;;;;;;;13.83;8.10;;;7.60;72.60;;;;;;4996305;28;20339;-77
2022/02/19 07:39:01;;;;;;;14.03;6.27;;;8.40;70.70;;;;;;5000177;28;20184;-77
2022/02/19 07:41:26;;;;;;;14.03;5.10;;;9.30;68.30;;;;;;5000183;28;20184;-77
2022/02/19 07:43:52;;;;;;;15.17;6.50;;;10.10;68.50;;;;;;4998963;28;20177;-75
2022/02/19 07:46:18;;;;;;;22.40;7.23;;;11.00;68.10;;;;;;4995593;28;20197;-76
2022/02/19 07:48:44;;;;;;;8.83;7.10;;;11.90;64.40;;;;;;4993716;28;20340;-76
2022/02/19 07:59:22;;;;;;;20.05;8.55;;;15.30;59.70;;;;;;4995697;28;20263;-79
2022/02/19 08:01:48;;;;;;;14.05;9.27;;;16.10;58.70;;;;;;4995738;28;20671;-79
2022/02/19 08:04:14;;;;;;;16.45;8.15;;;16.80;56.40;;;;;;4994859;28;20177;-80
2022/02/19 08:06:40;;;;;;;22.60;8.45;;;17.40;55.10;;;;;;4998668;28;20212;-82
2022/02/19 08:09:06;;;;;;;12.75;7.05;;;18.00;52.90;;;;;;4996962;28;20227;-76
2022/02/19 08:11:32;;;;;;;10.75;7.15;;;18.60;53.50;;;;;;4995293;28;20632;-79
2022/02/19 08:13:57;;;;;;;12.93;7.53;;;19.20;52.20;;;;;;4993707;28;20182;-79
2022/02/19 08:16:23;;;;;;;11.73;7.28;;;19.70;51.30;;;;;;4997347;28;20190;-77
2022/02/19 08:18:50;;;;;;;17.63;7.18;;;20.20;49.70;;;;;;4997777;28;20325;-78
2022/02/19 08:21:18;;;;;;;11.50;6.18;;;20.20;49.10;;;;;;5002246;28;20270;-77
2022/02/19 08:23:44;;;;;;;9.95;6.07;;;20.00;48.80;;;;;;4995524;28;20192;-77
2022/02/19 08:26:09;;;;;;;8.18;7.13;;;20.20;48.50;;;;;;4997379;28;20240;-75
2022/02/19 08:28:35;;;;;;;13.75;5.93;;;20.50;48.40;;;;;;4992509;28;20209;-76
2022/02/19 08:31:02;;;;;;;6.32;5.45;;;20.60;48.50;;;;;;4999498;28;20181;-76
2022/02/19 08:33:28;;;;;;;11.63;5.32;;;21.00;47.60;;;;;;4994363;28;20223;-76
2022/02/19 08:35:54;;;;;;;9.73;5.57;;;21.50;48.40;;;;;;4996931;28;20745;-76
2022/02/19 08:38:20;;;;;;;11.13;5.65;;;21.90;47.20;;;;;;4997409;28;20205;-76
2022/02/19 08:40:46;;;;;;;8.52;5.00;;;22.50;46.90;;;;;;4996084;28;20178;-76
2022/02/19 08:43:12;;;;;;;5.75;4.43;;;23.00;45.90;;;;;;4996680;28;20188;-77
2022/02/19 08:45:39;;;;;;;7.55;4.47;;;23.50;45.90;;;;;;4997679;28;20197;-77
2022/02/19 08:48:05;;;;;;;7.45;4.68;;;23.60;44.10;;;;;;5000821;28;20221;-77
2022/02/19 08:50:35;;;;;;;5.40;3.95;;;23.80;45.60;;;;;;4993737;28;20268;-77
2022/02/19 08:53:03;;;;;;;4.70;3.88;;;24.20;44.70;;;;;;4992311;28;20260;-77
2022/02/19 08:55:29;;;;;;;4.20;3.47;;;24.60;44.90;;;;;;4991177;28;20246;-77
2022/02/19 08:57:56;;;;;;;8.63;3.50;;;25.10;44.20;;;;;;4992354;28;20272;-77
2022/02/19 09:00:24;;;;;;;6.20;3.05;;;25.60;44.10;;;;;;4994421;28;20185;-77
2022/02/19 09:02:50;;;;;;;5.60;3.72;;;26.10;43.30;;;;;;4990823;28;20212;-77
2022/02/19 09:05:17;;;;;;;7.22;3.90;;;26.60;43.40;;;;;;4992999;28;20272;-77
2022/02/19 09:07:43;;;;;;;7.10;3.80;;;27.10;43.10;;;;;;4998288;28;20299;-77
2022/02/19 09:10:10;;;;;;;4.65;3.28;;;27.40;41.50;;;;;;4995405;28;20758;-77
2022/02/19 09:12:40;;;;;;;3.67;3.30;;;27.90;42.00;;;;;;4990193;28;20665;-76
2022/02/19 09:15:07;;;;;;;7.70;2.83;;;28.30;41.10;;;;;;4995106;28;20189;-76
2022/02/19 09:17:33;;;;;;;3.63;3.35;;;28.80;40.10;;;;;;4992069;28;20210;-76
2022/02/19 09:19:59;;;;;;;4.43;3.10;;;29.20;41.00;;;;;;4996250;28;20742;-75
2022/02/19 09:22:24;;;;;;;5.13;3.42;;;29.50;40.40;;;;;;4994131;28;20570;-77
2022/02/19 09:24:50;;;;;;;6.75;3.88;;;29.70;39.70;;;;;;4995196;28;20261;-77
2022/02/19 09:27:16;;;;;;;7.13;4.15;;;29.80;39.20;;;;;;4992860;28;20279;-78
2022/02/19 09:29:41;;;;;;;7.15;3.13;;;29.70;38.40;;;;;;4994799;28;20573;-78
2022/02/19 09:32:07;;;;;;;7.28;3.17;;;29.50;39.20;;;;;;4996204;28;20188;-78
2022/02/19 09:34:33;;;;;;;8.10;4.15;;;28.80;39.30;;;;;;4993040;28;20189;-78
2022/02/19 09:36:59;;;;;;;5.93;4.50;;;28.30;39.60;;;;;;4991318;28;20208;-76
2022/02/19 09:39:25;;;;;;;6.25;5.03;;;27.90;40.10;;;;;;4994477;28;20545;-76
2022/02/19 09:41:51;;;;;;;6.20;5.15;;;27.60;40.30;;;;;;5000482;28;20198;-76
2022/02/19 09:44:17;;;;;;;7.55;4.68;;;27.40;40.20;;;;;;4996047;28;20236;-77
2022/02/19 09:46:48;;;;;;;10.93;4.40;;;27.40;40.70;;;;;;4998696;28;20209;-77
2022/02/19 09:49:18;;;;;;;7.78;3.90;;;27.50;39.90;;;;;;4999411;28;20600;-78
2022/02/19 09:51:45;;;;;;;6.20;3.85;;;27.40;40.60;;;;;;4995281;28;20216;-77
2022/02/19 09:54:11;;;;;;;6.00;3.80;;;27.50;40.20;;;;;;4999144;28;20609;-78
2022/02/19 09:56:37;;;;;;;4.70;3.78;;;27.70;38.50;;;;;;5000059;28;20231;-77
2022/02/19 09:59:06;;;;;;;10.45;3.53;;;27.50;39.80;;;;;;4996050;28;20180;-77
2022/02/19 10:01:36;;;;;;;3.75;3.42;;;27.60;40.10;;;;;;4999072;28;20185;-77
2022/02/19 10:04:06;;;;;;;4.38;3.63;;;27.90;39.80;;;;;;5004777;28;20184;-78
2022/02/19 10:06:52;;;;;;;5.00;3.97;;;27.80;38.80;;;;;;4998817;28;20185;-78
2022/02/19 10:09:19;;;;;;;11.30;4.55;;;27.40;39.70;;;;;;5006304;28;20192;-78
2022/02/19 10:11:47;;;;;;;4.72;3.05;;;27.20;39.90;;;;;;4998493;28;20209;-78
2022/02/19 10:14:31;;;;;;;5.60;3.72;;;27.10;40.00;;;;;;5000050;28;20185;-78
2022/02/19 10:17:07;;;;;;;7.20;3.50;;;27.40;40.80;;;;;;5016656;28;20211;-77
2022/02/19 10:19:56;;;;;;;6.85;3.00;;;27.90;39.50;;;;;;4999249;28;20192;-77
2022/02/19 10:22:29;;;;;;;7.72;3.30;;;28.00;37.60;;;;;;4998300;28;20575;-78
2022/02/19 10:24:57;;;;;;;5.00;3.25;;;28.10;39.70;;;;;;4998691;28;20196;-77
2022/02/19 10:27:48;;;;;;;5.95;3.00;;;28.40;38.30;;;;;;4994522;28;20217;-77
2022/02/19 10:30:19;;;;;;;3.30;2.65;;;28.80;38.90;;;;;;4969912;28;20293;-77
2022/02/19 10:32:53;;;;;;;3.50;3.03;;;29.10;38.20;;;;;;4981215;28;20201;-78
2022/02/19 10:35:30;;;;;;;3.35;2.13;;;29.40;38.10;;;;;;4985186;28;20237;-77
2022/02/19 10:38:00;;;;;;;4.22;2.05;;;29.40;35.90;;;;;;4967914;28;20276;-77
2022/02/19 10:40:29;;;;;;;2.80;2.20;;;29.30;36.40;;;;;;4980983;28;20201;-77
2022/02/19 10:43:02;;;;;;;3.95;2.15;;;29.10;39.10;;;;;;4988014;28;20200;-77
2022/02/19 10:45:29;;;;;;;1.92;1.77;;;29.00;37.40;;;;;;4988296;28;20201;-78
2022/02/19 10:48:17;;;;;;;3.60;1.05;;;29.10;36.40;;;;;;4968594;28;20236;-78
2022/02/19 10:50:44;;;;;;;2.55;1.95;;;28.70;36.50;;;;;;4968762;28;20196;-78
2022/02/19 10:53:23;;;;;;;2.55;1.95;;;28.80;38.90;;;;;;4964162;28;20182;-78
2022/02/19 10:55:56;;;;;;;2.00;1.20;;;28.90;36.90;;;;;;4983126;28;20272;-78
2022/02/19 10:58:23;;;;;;;1.42;1.35;;;28.70;37.00;;;;;;4965616;28;20981;-78
2022/02/19 11:00:49;;;;;;;1.50;1.40;;;28.70;37.70;;;;;;4982725;28;20204;-78
2022/02/19 11:03:17;;;;;;;2.92;1.67;;;28.90;37.80;;;;;;4982172;28;20671;-78
2022/02/19 11:05:43;;;;;;;4.43;1.73;;;28.80;35.90;;;;;;4980769;28;20248;-78
2022/02/19 11:08:10;;;;;;;3.35;1.60;;;28.40;37.00;;;;;;4995844;28;20225;-78
2022/02/19 11:10:36;;;;;;;4.78;2.10;;;27.90;39.50;;;;;;5007143;28;20173;-78
2022/02/19 11:13:03;;;;;;;2.58;1.88;;;27.80;35.50;;;;;;5013359;28;20693;-76
2022/02/19 11:15:29;;;;;;;2.28;2.08;;;;;;;;;;4995930;28;20651;-76
2022/02/19 11:17:55;;;;;;;2.65;1.95;;;27.90;36.40;;;;;;4999754;28;20197;-77
2022/02/19 11:20:24;;;;;;;3.40;1.63;;;27.70;37.00;;;;;;4994391;28;20193;-77
2022/02/19 11:22:51;;;;;;;1.77;1.60;;;27.10;37.20;;;;;;4998454;28;20181;-78
2022/02/19 11:25:23;;;;;;;1.67;1.58;;;26.60;37.20;;;;;;5000855;28;20307;-78
2022/02/19 11:27:58;;;;;;;3.70;1.85;;;26.30;38.90;;;;;;4993518;28;21053;-77
2022/02/19 11:30:28;;;;;;;4.32;1.73;;;26.50;38.50;;;;;;4994567;28;20784;-77
2022/02/19 11:32:56;;;;;;;1.58;1.58;;;26.80;39.80;;;;;;4990845;28;20188;-77
2022/02/19 11:35:37;;;;;;;11.02;2.20;;;27.10;37.00;;;;;;4992819;28;20208;-77
2022/02/19 11:38:24;;;;;;;2.60;1.67;;;27.70;36.90;;;;;;4996694;28;20185;-77
2022/02/19 11:41:02;;;;;;;4.35;1.67;;;27.60;36.10;;;;;;4993889;28;20748;-77
2022/02/19 11:43:47;;;;;;;4.32;1.70;;;27.30;36.60;;;;;;5000929;28;20194;-77
2022/02/19 11:46:16;;;;;;;6.78;1.33;;;;;;;;;;4996071;28;20680;-77
2022/02/19 11:48:46;;;;;;;4.00;1.58;;;27.80;38.10;;;;;;4993690;28;20639;-77
2022/02/19 11:51:16;;;;;;;2.15;1.85;;;28.10;37.60;;;;;;5000195;28;20189;-77
2022/02/19 11:53:42;;;;;;;1.83;1.70;;;28.40;37.90;;;;;;5006642;28;20193;-77
2022/02/19 11:56:14;;;;;;;1.20;1.20;;;28.50;36.40;;;;;;4995470;28;20200;-77
2022/02/19 11:58:51;;;;;;;1.95;1.45;;;28.40;37.40;;;;;;4996511;28;20193;-77
2022/02/19 12:01:17;;;;;;;1.35;1.25;;;28.20;36.40;;;;;;5000611;28;20177;-76
2022/02/19 12:03:43;;;;;;;1.75;1.45;;;28.30;37.70;;;;;;4998545;28;20208;-77
2022/02/19 12:06:24;;;;;;;4.22;1.45;;;28.60;38.10;;;;;;4999683;28;20232;-77
2022/02/19 12:08:52;;;;;;;1.75;1.65;;;;;;;;;;4995074;28;20220;-77
2022/02/19 12:11:25;;;;;;;1.30;1.17;;;29.10;35.90;;;;;;4994537;28;20268;-77
2022/02/19 12:13:57;;;;;;;1.83;1.10;;;29.00;37.10;;;;;;4992709;28;20706;-77
2022/02/19 12:16:31;;;;;;;4.32;1.35;;;28.70;37.70;;;;;;4995878;28;20270;-76
2022/02/19 12:19:07;;;;;;;3.75;1.42;;;28.90;37.20;;;;;;4997819;28;20304;-77
2022/02/19 12:21:34;;;;;;;2.30;1.30;;;29.30;37.90;;;;;;5001829;28;20246;-80
2022/02/19 12:24:12;;;;;;;1.00;0.95;;;29.60;37.10;;;;;;5010178;28;20217;-74
2022/02/19 12:26:55;;;;;;;2.63;1.00;;;29.90;35.90;;;;;;4996205;28;20186;-75
2022/02/19 12:29:22;;;;;;;3.75;1.23;;;30.20;36.70;;;;;;4999435;28;20225;-77
2022/02/19 12:32:04;;;;;;;2.30;1.35;;;30.50;35.20;;;;;;5000029;28;20177;-76
2022/02/19 12:34:31;;;;;;;3.65;1.40;;;30.20;36.10;;;;;;4993800;28;20174;-74
2022/02/19 12:36:58;;;;;;;1.83;0.90;;;29.70;36.30;;;;;;4999150;28;20188;-73
2022/02/19 12:39:25;;;;;;;1.45;1.35;;;29.50;36.70;;;;;;4993620;28;20282;-74
2022/02/19 12:41:55;;;;;;;1.55;0.98;;;29.30;38.10;;;;;;4998192;28;20279;-76
2022/02/19 12:44:22;;;;;;;3.22;1.00;;;29.10;37.70;;;;;;4996970;28;20202;-76
2022/02/19 12:46:49;;;;;;;2.65;0.90;;;;;;;;;;4998882;28;20234;-75
2022/02/19 12:49:18;;;;;;;2.15;1.35;;;;;;;;;;4997262;28;20216;-76
2022/02/19 12:51:52;;;;;;;2.05;1.35;;;29.40;37.60;;;;;;4995688;28;20231;-75
2022/02/19 12:54:35;;;;;;;1.50;1.40;;;29.50;37.20;;;;;;4995841;28;20979;-75
2022/02/19 12:57:01;;;;;;;4.60;1.33;;;29.70;36.40;;;;;;4995926;28;20215;-75
2022/02/19 12:59:28;;;;;;;1.50;1.40;;;29.90;37.70;;;;;;4996819;28;20545;-75